KPIH/PIH METAR and TAF weather

Enter ICAO airport designator
Station Type Date Time Source
KPIH METAR 2020/04/04 20:53 UTC NOAA

KPIH 042053Z VRB03KT 10SM CLR 12/M11 A2976 RMK AO2 SLP077 T01171106 58024


Station Type Date Time Source
KPIH Decoded METAR 2020/04/04 20:53 UTC NOAA

POCATELLO REGIONAL AIRPORT, ID, United States (KPIH) 42-55N 112-36W 1359M
Apr 04, 2020 - 04:53 PM EDT / 2020.04.04 2053 UTC
Wind: Variable at 3 MPH (3 KT):0
Visibility: 10 mile(s):0
Sky conditions: clear
Temperature: 53.1 F (11.7 C)
Dew Point: 12.9 F (-10.6 C)
Relative Humidity: 19%
Pressure (altimeter): 29.76 in. Hg (1007 hPa)
Pressure tendency: 0.07 inches (2.4 hPa) lower than three hours ago
ob: KPIH 042053Z VRB03KT 10SM CLR 12/M11 A2976 RMK AO2 SLP077 T01171106 58024
cycle: 21

Station Type Date Time Source
KPIH TAF 2020/04/04 21:39 UTC NOAA

TAF
AMD KPIH 042036Z 0421/0518 26010G18KT P6SM FEW080 FEW160
FM050100 VRB06KT P6SM SCT080 SCT130
FM050500 20008KT P6SM VCSH BKN030 BKN110

Example: see airport list